Time;durP1;ratioP1;P1;durP2;ratioP2;P2;SDS_P1;SDS_P2;PMS_P1;PMS_P2;Temp;Humidity;BMP_temperature;BMP_pressure;BME280_temperature;BME280_humidity;BME280_pressure;Samples;Min_cycle;Max_cycle;Signal;HPM_P1;HPM_P2
2022/05/24 00:02:21;;;;;;;6.13;2.40;;;24.00;58.40;;;;;;7489680;23;20049;-72
2022/05/24 00:05:24;;;;;;;3.45;1.85;;;24.00;58.60;;;;;;7489088;23;20370;-72
2022/05/24 00:08:25;;;;;;;8.73;2.70;;;24.00;58.60;;;;;;7490283;23;20126;-72
2022/05/24 00:11:26;;;;;;;7.25;3.05;;;24.00;58.70;;;;;;7489833;23;20110;-72
2022/05/24 00:18:12;;;;;;;4.18;2.22;;;23.90;58.70;;;;;;7639327;23;20661;-72
2022/05/24 00:21:13;;;;;;;7.13;2.53;;;23.90;59.00;;;;;;7710016;23;20020;-72
2022/05/24 00:24:14;;;;;;;9.48;2.95;;;23.90;59.20;;;;;;7710745;23;20016;-72
2022/05/24 00:27:15;;;;;;;11.25;2.78;;;23.90;59.30;;;;;;7711307;23;20335;-72
2022/05/24 00:30:17;;;;;;;7.90;2.72;;;23.90;59.60;;;;;;7684340;23;20435;-72
2022/05/24 00:33:18;;;;;;;7.43;3.03;;;23.90;60.40;;;;;;7658865;23;20016;-73
2022/05/24 00:36:19;;;;;;;6.72;3.05;;;24.00;59.80;;;;;;7710441;23;20028;-72
2022/05/24 00:39:20;;;;;;;10.23;2.88;;;23.90;59.80;;;;;;7709076;23;20023;-72
2022/05/24 00:42:25;;;;;;;4.47;2.28;;;23.90;59.80;;;;;;7711094;23;20320;-73
2022/05/24 00:45:54;;;;;;;7.28;3.15;;;24.00;59.90;;;;;;7710899;23;20027;-72
2022/05/24 00:49:03;;;;;;;6.00;2.63;;;23.90;59.80;;;;;;7706564;23;20420;-73
2022/05/24 00:52:07;;;;;;;7.65;3.22;;;23.90;59.70;;;;;;7710270;23;20098;-73
2022/05/24 00:55:12;;;;;;;7.93;3.05;;;24.00;59.80;;;;;;7684651;23;20025;-73
2022/05/24 00:58:34;;;;;;;9.30;3.15;;;24.00;59.90;;;;;;7709957;23;20017;-73
2022/05/24 01:01:39;;;;;;;6.00;2.80;;;24.00;60.00;;;;;;7683487;23;20013;-72
2022/05/24 01:04:40;;;;;;;6.78;3.10;;;24.00;60.00;;;;;;7709587;23;20009;-73
2022/05/24 01:07:41;;;;;;;5.95;2.75;;;24.00;60.00;;;;;;7669377;23;20028;-72
2022/05/24 01:10:50;;;;;;;9.68;3.65;;;24.00;60.20;;;;;;7708544;23;20073;-73
2022/05/24 01:13:53;;;;;;;;;;;23.90;60.30;;;;;;7710352;23;20016;-72
2022/05/24 01:16:55;;;;;;;3.40;1.95;;;23.90;60.30;;;;;;7683868;23;19939;-72
2022/05/24 01:19:57;;;;;;;7.50;2.30;;;23.80;59.90;;;;;;7707782;23;20435;-72
2022/05/24 01:23:04;;;;;;;8.82;2.15;;;23.80;59.60;;;;;;7683735;23;20023;-72
2022/05/24 01:26:18;;;;;;;3.42;1.90;;;23.70;59.40;;;;;;7684228;23;20052;-72
2022/05/24 01:29:21;;;;;;;5.65;1.67;;;23.70;59.20;;;;;;7709187;23;20440;-72
2022/05/24 01:39:05;;;;;;;3.20;1.73;;;23.80;58.60;;;;;;7708816;23;20017;-72
2022/05/24 01:42:06;;;;;;;8.52;2.50;;;23.80;58.60;;;;;;7710694;23;20250;-72
2022/05/24 01:45:10;;;;;;;6.82;2.88;;;23.80;59.30;;;;;;7658700;23;20103;-72
2022/05/24 01:48:17;;;;;;;7.72;3.47;;;23.70;59.00;;;;;;7658061;23;20071;-72
2022/05/24 01:51:23;;;;;;;6.82;3.30;;;23.70;59.30;;;;;;7685347;23;20074;-72
2022/05/24 01:54:24;;;;;;;9.57;3.10;;;23.70;59.60;;;;;;7660562;23;20024;-72
2022/05/24 01:57:36;;;;;;;5.35;3.17;;;23.70;59.70;;;;;;7660613;23;20025;-72
2022/05/24 02:00:40;;;;;;;9.68;2.50;;;23.70;59.90;;;;;;7709511;23;20324;-73
2022/05/24 02:03:41;;;;;;;6.93;2.58;;;23.60;59.80;;;;;;7683670;23;20613;-73
2022/05/24 02:06:42;;;;;;;7.78;2.58;;;23.60;59.80;;;;;;7683421;23;20017;-72
2022/05/24 02:09:45;;;;;;;5.80;2.22;;;23.60;59.60;;;;;;7683330;23;20074;-72
2022/05/24 02:12:51;;;;;;;6.88;2.30;;;23.60;59.60;;;;;;7660555;23;20055;-72
2022/05/24 02:15:58;;;;;;;3.92;1.83;;;23.60;59.40;;;;;;7660192;23;20013;-71
2022/05/24 02:18:59;;;;;;;9.88;2.38;;;23.60;59.20;;;;;;7685139;23;20016;-71
2022/05/24 02:22:07;;;;;;;8.77;2.10;;;23.60;59.00;;;;;;7685127;23;20044;-72
2022/05/24 02:25:15;;;;;;;7.78;2.13;;;23.60;58.90;;;;;;7686379;23;20013;-72
2022/05/24 02:28:17;;;;;;;;;;;23.60;58.70;;;;;;7715990;23;20094;-72
2022/05/24 02:31:20;;;;;;;3.80;1.80;;;23.70;58.60;;;;;;7714747;23;20327;-73
2022/05/24 02:34:21;;;;;;;5.55;1.63;;;23.70;58.30;;;;;;7714743;23;20111;-72
2022/05/24 02:37:22;;;;;;;3.78;1.60;;;23.70;58.10;;;;;;7714563;23;20402;-74
2022/05/24 02:43:42;;;;;;;13.18;2.08;;;23.70;57.60;;;;;;7688395;23;20027;-72
2022/05/24 02:46:45;;;;;;;7.13;1.60;;;23.60;57.20;;;;;;7688662;23;20345;-72
2022/05/24 02:49:47;;;;;;;7.90;2.40;;;23.60;57.10;;;;;;7689037;23;20020;-73
2022/05/24 02:52:49;;;;;;;4.55;1.63;;;23.50;56.90;;;;;;7714813;23;20331;-72
2022/05/24 02:55:52;;;;;;;11.65;1.98;;;23.60;56.90;;;;;;7664001;23;20103;-72
2022/05/24 02:58:53;;;;;;;6.53;2.40;;;23.60;57.00;;;;;;7689200;23;20005;-73
2022/05/24 03:01:54;;;;;;;5.40;2.33;;;23.60;57.00;;;;;;7686910;23;20023;-73
2022/05/24 03:04:55;;;;;;;10.07;2.10;;;23.50;57.00;;;;;;7688814;23;20036;-73
2022/05/24 03:11:15;;;;;;;11.93;2.28;;;23.50;57.50;;;;;;7714476;23;20044;-73
2022/05/24 03:14:21;;;;;;;3.88;1.75;;;23.50;57.50;;;;;;7688694;23;20434;-73
2022/05/24 03:17:23;;;;;;;5.93;1.67;;;23.50;56.40;;;;;;7688252;23;20044;-73
2022/05/24 03:20:23;;;;;;;3.83;1.88;;;23.50;56.80;;;;;;7714263;23;20089;-73
2022/05/24 03:23:24;;;;;;;6.03;1.80;;;23.50;56.40;;;;;;7688340;23;20016;-73
2022/05/24 03:26:25;;;;;;;5.38;2.05;;;23.50;56.20;;;;;;7688317;23;20031;-73
2022/05/24 03:29:34;;;;;;;5.07;2.25;;;23.40;56.40;;;;;;7714129;23;20013;-73
2022/05/24 03:32:34;;;;;;;4.47;2.40;;;23.40;56.90;;;;;;7712553;23;20066;-73
2022/05/24 03:35:36;;;;;;;6.45;2.80;;;23.40;57.20;;;;;;7714058;23;20379;-73
2022/05/24 03:38:37;;;;;;;3.53;2.83;;;23.30;57.50;;;;;;7687909;23;20017;-73
2022/05/24 03:41:40;;;;;;;8.45;2.45;;;23.30;57.80;;;;;;7714375;23;20090;-71
2022/05/24 03:44:41;;;;;;;2.78;2.35;;;23.30;58.00;;;;;;7688040;23;20066;-72
2022/05/24 03:47:41;;;;;;;8.95;2.58;;;23.20;58.10;;;;;;7714175;23;20020;-73
2022/05/24 03:50:42;;;;;;;11.48;3.08;;;23.20;58.30;;;;;;7687812;23;20036;-73
2022/05/24 03:53:43;;;;;;;4.88;2.42;;;23.20;58.30;;;;;;7687561;23;20028;-72
2022/05/24 04:00:05;;;;;;;3.50;2.30;;;23.20;58.50;;;;;;7714236;23;20027;-72
2022/05/24 04:03:14;;;;;;;5.38;2.08;;;23.10;58.50;;;;;;7714293;23;20008;-71
2022/05/24 04:06:15;;;;;;;5.30;2.28;;;23.10;58.50;;;;;;7713688;23;20016;-72
2022/05/24 04:09:16;;;;;;;9.45;2.00;;;23.10;58.30;;;;;;7687576;23;20035;-73
2022/05/24 04:12:17;;;;;;;9.48;2.50;;;23.10;58.30;;;;;;7714328;23;20339;-73
2022/05/24 04:15:19;;;;;;;9.02;2.10;;;23.10;58.50;;;;;;7714001;23;20025;-73
2022/05/24 04:18:20;;;;;;;2.40;1.63;;;23.10;58.50;;;;;;7687929;23;20044;-73
2022/05/24 04:21:21;;;;;;;3.15;1.40;;;23.10;58.30;;;;;;7713577;23;20090;-73
2022/05/24 04:24:23;;;;;;;4.78;1.30;;;23.10;57.70;;;;;;7687709;23;20052;-73
2022/05/24 04:27:24;;;;;;;4.97;1.27;;;23.10;55.10;;;;;;7714075;23;20052;-73
2022/05/24 04:30:24;;;;;;;6.25;1.75;;;22.90;53.40;;;;;;7713704;23;20024;-73
2022/05/24 04:33:25;;;;;;;3.15;0.95;;;22.80;52.30;;;;;;7687835;23;20021;-71
2022/05/24 04:36:28;;;;;;;7.53;1.27;;;22.70;51.90;;;;;;7686542;23;20084;-72
2022/05/24 04:39:31;;;;;;;1.55;1.10;;;22.60;51.60;;;;;;7711656;23;20016;-72
2022/05/24 04:42:31;;;;;;;4.45;0.98;;;22.50;51.30;;;;;;7686989;23;20024;-71
2022/05/24 04:45:32;;;;;;;5.40;0.93;;;22.40;51.00;;;;;;7662616;23;20323;-73
2022/05/24 04:48:33;;;;;;;3.65;0.98;;;22.30;51.00;;;;;;7662455;23;20091;-73
2022/05/24 04:51:34;;;;;;;10.65;1.30;;;22.20;51.20;;;;;;7687040;23;20458;-73
2022/05/24 04:54:36;;;;;;;2.60;0.80;;;22.10;51.50;;;;;;7662456;23;20090;-72
2022/05/24 04:57:37;;;;;;;1.63;0.90;;;22.00;51.60;;;;;;7688261;23;20026;-73
2022/05/24 05:00:38;;;;;;;3.22;0.63;;;22.00;51.60;;;;;;7713712;23;20022;-71
2022/05/24 05:03:39;;;;;;;5.13;0.73;;;21.90;51.20;;;;;;7662444;23;20012;-71
2022/05/24 05:06:43;;;;;;;4.10;0.82;;;21.80;51.00;;;;;;7662160;23;20036;-71
2022/05/24 05:09:44;;;;;;;2.78;0.77;;;21.70;50.60;;;;;;7713088;23;20020;-72
2022/05/24 05:12:46;;;;;;;7.55;1.13;;;21.70;50.20;;;;;;7686142;23;20013;-72
2022/05/24 05:15:47;;;;;;;6.18;1.33;;;21.60;49.80;;;;;;7661643;23;20047;-70
2022/05/24 05:18:47;;;;;;;4.47;0.75;;;21.60;49.70;;;;;;7711438;23;20021;-70
2022/05/24 05:21:48;;;;;;;2.63;0.77;;;21.50;49.50;;;;;;7710773;23;20016;-70
2022/05/24 05:24:51;;;;;;;3.47;0.90;;;21.50;49.10;;;;;;7712987;23;20017;-72
2022/05/24 05:27:52;;;;;;;4.18;1.20;;;21.50;48.40;;;;;;7712136;23;20031;-71
2022/05/24 05:34:13;;;;;;;5.38;0.80;;;21.50;47.80;;;;;;7685614;23;20067;-71
2022/05/24 05:37:14;;;;;;;3.90;0.77;;;21.50;47.20;;;;;;7712922;23;20009;-72
2022/05/24 05:40:15;;;;;;;0.47;0.30;;;21.50;47.30;;;;;;7713402;23;20356;-71
2022/05/24 05:43:16;;;;;;;3.08;0.47;;;21.60;47.30;;;;;;7686863;23;20025;-71
2022/05/24 05:46:18;;;;;;;10.13;1.73;;;21.60;47.00;;;;;;7684544;23;20074;-72
2022/05/24 05:49:19;;;;;;;0.68;0.38;;;21.70;47.00;;;;;;7685745;23;20408;-72
2022/05/24 05:52:20;;;;;;;0.73;0.60;;;21.70;46.80;;;;;;7683556;23;20013;-72
2022/05/24 05:55:21;;;;;;;5.05;1.50;;;21.70;46.60;;;;;;7660938;23;20332;-72
2022/05/24 05:58:22;;;;;;;1.25;0.60;;;21.70;46.50;;;;;;7661426;23;20071;-72
2022/05/24 06:01:29;;;;;;;8.90;1.10;;;21.70;46.50;;;;;;7662446;23;20017;-72
2022/05/24 06:04:33;;;;;;;1.83;0.80;;;21.80;46.50;;;;;;7687725;23;20372;-72
2022/05/24 06:07:34;;;;;;;2.50;0.90;;;21.80;46.20;;;;;;7663638;23;20017;-73
2022/05/24 06:10:36;;;;;;;6.78;1.00;;;21.90;45.80;;;;;;7687833;23;20074;-72
2022/05/24 06:13:37;;;;;;;6.10;0.90;;;21.90;45.80;;;;;;7688217;23;20087;-72
2022/05/24 06:16:38;;;;;;;2.78;1.00;;;21.90;45.70;;;;;;7714424;23;20017;-71
2022/05/24 06:19:39;;;;;;;0.75;0.43;;;22.00;45.50;;;;;;7713941;23;20051;-72
2022/05/24 06:22:40;;;;;;;3.72;0.70;;;22.00;45.20;;;;;;7687939;23;20018;-72
2022/05/24 06:25:43;;;;;;;4.70;0.57;;;22.10;44.90;;;;;;7688889;23;20377;-72
2022/05/24 06:28:44;;;;;;;6.38;1.33;;;22.10;44.50;;;;;;7712821;23;20016;-72
2022/05/24 06:31:45;;;;;;;5.60;0.50;;;22.20;44.40;;;;;;7688165;23;20312;-71
2022/05/24 06:34:51;;;;;;;0.38;0.30;;;22.30;44.10;;;;;;7713806;23;20017;-72
2022/05/24 06:37:54;;;;;;;1.95;0.50;;;22.30;43.80;;;;;;7687822;23;20013;-72
2022/05/24 06:40:55;;;;;;;2.20;0.68;;;22.40;43.50;;;;;;7715183;23;20100;-73
2022/05/24 06:43:57;;;;;;;1.23;0.55;;;22.50;43.10;;;;;;7688251;23;20012;-71
2022/05/24 06:46:57;;;;;;;4.68;1.23;;;22.60;42.90;;;;;;7688006;23;20659;-71
2022/05/24 06:49:59;;;;;;;0.57;0.30;;;22.50;42.90;;;;;;7713732;23;20411;-71
2022/05/24 06:53:00;;;;;;;2.22;0.32;;;22.50;43.00;;;;;;7713351;23;20012;-72
2022/05/24 06:56:00;;;;;;;6.10;0.60;;;22.50;42.80;;;;;;7673843;23;20071;-72
2022/05/24 07:02:26;;;;;;;3.15;0.70;;;22.50;43.00;;;;;;7685523;23;20028;-72
2022/05/24 07:05:27;;;;;;;1.17;0.50;;;22.80;42.50;;;;;;7663378;23;20028;-71
2022/05/24 07:08:28;;;;;;;4.03;0.47;;;23.10;42.60;;;;;;7687228;23;20020;-71
2022/05/24 07:11:29;;;;;;;3.75;0.30;;;23.30;41.70;;;;;;7662497;23;20043;-72
2022/05/24 07:14:33;;;;;;;4.90;1.10;;;23.40;41.70;;;;;;7687678;23;20047;-73
2022/05/24 07:17:34;;;;;;;4.53;0.77;;;23.50;41.60;;;;;;7661595;23;20020;-71
2022/05/24 07:20:38;;;;;;;2.17;0.47;;;23.40;41.70;;;;;;7713996;23;20116;-71
2022/05/24 07:23:40;;;;;;;2.17;0.47;;;23.50;41.70;;;;;;7713298;23;20020;-72
2022/05/24 07:26:42;;;;;;;0.55;0.35;;;23.60;41.60;;;;;;7712911;23;20443;-72
2022/05/24 07:29:43;;;;;;;0.60;0.45;;;23.50;41.50;;;;;;7714287;23;20017;-71
2022/05/24 07:32:45;;;;;;;1.40;0.80;;;23.30;41.50;;;;;;7688092;23;20027;-71
2022/05/24 07:35:46;;;;;;;2.05;0.60;;;23.10;41.90;;;;;;7688149;23;20033;-71
2022/05/24 07:38:47;;;;;;;0.88;0.22;;;23.10;42.10;;;;;;7687911;23;20075;-71
2022/05/24 07:48:29;;;;;;;1.85;0.80;;;22.90;42.10;;;;;;7713251;23;20099;-70
2022/05/24 07:51:30;;;;;;;1.38;0.30;;;22.90;41.90;;;;;;7687099;23;20108;-71
2022/05/24 07:54:32;;;;;;;4.88;0.52;;;22.80;41.70;;;;;;7713681;23;20056;-71
2022/05/24 07:57:33;;;;;;;0.77;0.30;;;22.80;41.80;;;;;;7698025;23;20021;-73
2022/05/24 08:00:35;;;;;;;2.53;0.47;;;22.70;41.80;;;;;;7713516;23;20308;-74
2022/05/24 08:03:38;;;;;;;0.25;0.17;;;22.70;41.90;;;;;;7686770;23;20139;-71
2022/05/24 08:06:40;;;;;;;1.60;0.43;;;22.70;41.90;;;;;;7686608;23;20055;-72
2022/05/24 08:09:40;;;;;;;1.75;0.40;;;22.60;41.80;;;;;;7713101;23;20043;-71
2022/05/24 08:12:42;;;;;;;0.22;0.20;;;22.70;41.60;;;;;;7687043;23;20024;-71
2022/05/24 08:15:43;;;;;;;0.57;0.40;;;22.70;41.30;;;;;;7687014;23;20047;-72
2022/05/24 08:18:44;;;;;;;2.05;0.50;;;22.80;40.90;;;;;;7686893;23;20301;-73
2022/05/24 08:21:45;;;;;;;1.85;0.38;;;22.80;40.30;;;;;;7685794;23;20162;-73
2022/05/24 08:24:46;;;;;;;1.92;0.30;;;22.90;39.70;;;;;;7686737;23;20051;-73
2022/05/24 08:27:47;;;;;;;1.90;0.35;;;22.90;39.10;;;;;;7686908;23;20171;-72
2022/05/24 08:30:50;;;;;;;0.43;0.30;;;23.00;38.90;;;;;;7686688;23;20016;-73
2022/05/24 08:33:52;;;;;;;1.27;0.45;;;23.00;38.70;;;;;;7711942;23;20017;-73
2022/05/24 08:36:53;;;;;;;3.03;0.50;;;23.10;38.30;;;;;;7659690;23;20016;-71
2022/05/24 08:39:57;;;;;;;0.47;0.30;;;23.30;38.20;;;;;;7686339;23;20022;-71
2022/05/24 08:43:16;;;;;;;3.25;0.38;;;23.40;37.80;;;;;;7712363;23;20360;-72
2022/05/24 08:49:46;;;;;;;4.07;0.45;;;23.60;37.40;;;;;;7681374;23;20311;-72
2022/05/24 08:53:10;;;;;;;1.88;0.52;;;23.50;37.20;;;;;;7668730;23;20009;-72
2022/05/24 08:56:17;;;;;;;2.60;0.40;;;23.50;37.20;;;;;;7709167;23;20040;-71
2022/05/24 08:59:25;;;;;;;1.25;0.50;;;23.50;37.40;;;;;;7683771;23;20021;-72
2022/05/24 09:02:26;;;;;;;0.95;0.40;;;23.50;36.70;;;;;;7682876;23;20016;-71
2022/05/24 09:05:35;;;;;;;5.43;0.55;;;23.60;36.70;;;;;;7709519;23;20040;-73
2022/05/24 09:09:08;;;;;;;5.95;0.60;;;23.80;36.30;;;;;;7682936;23;20473;-73
2022/05/24 09:12:20;;;;;;;3.75;0.40;;;23.80;36.20;;;;;;7485560;23;20094;-71
2022/05/24 09:15:34;;;;;;;2.78;0.50;;;24.00;36.00;;;;;;7486805;23;20046;-73
2022/05/24 09:19:09;;;;;;;1.35;0.40;;;24.10;35.60;;;;;;7486766;23;20011;-71
2022/05/24 09:22:11;;;;;;;0.30;0.30;;;24.00;35.40;;;;;;7462305;23;20450;-71
2022/05/24 09:25:14;;;;;;;3.13;0.63;;;24.00;35.50;;;;;;7488586;23;20027;-71
2022/05/24 09:28:15;;;;;;;8.05;2.30;;;24.10;35.70;;;;;;7488646;23;20325;-71
2022/05/24 09:31:35;;;;;;;1.45;0.60;;;24.20;35.50;;;;;;7464967;23;20034;-72
2022/05/24 09:34:38;;;;;;;1.55;0.73;;;24.40;35.20;;;;;;7498078;23;20081;-72
2022/05/24 09:37:42;;;;;;;2.58;0.43;;;24.40;34.90;;;;;;7524056;23;20023;-73
2022/05/24 09:40:51;;;;;;;17.05;1.63;;;24.30;34.80;;;;;;7500981;23;20014;-73
2022/05/24 09:43:58;;;;;;;1.17;0.88;;;24.20;35.10;;;;;;7500906;23;20018;-73
2022/05/24 09:47:00;;;;;;;1.13;0.47;;;24.20;35.20;;;;;;7525893;23;20018;-73
2022/05/24 09:50:32;;;;;;;2.40;0.35;;;24.20;35.00;;;;;;7637624;23;20045;-72
2022/05/24 09:53:45;;;;;;;1.33;0.70;;;24.10;35.30;;;;;;7637919;23;20305;-74
2022/05/24 09:57:08;;;;;;;1.38;0.63;;;24.20;35.50;;;;;;7637765;23;20099;-73
2022/05/24 10:00:20;;;;;;;2.20;1.15;;;24.40;35.30;;;;;;7635033;23;20060;-71
2022/05/24 10:03:34;;;;;;;1.35;0.40;;;24.60;34.90;;;;;;7600832;23;20014;-73
2022/05/24 10:06:36;;;;;;;4.68;1.33;;;24.70;34.70;;;;;;7633301;23;20072;-72
2022/05/24 10:10:01;;;;;;;2.13;0.88;;;24.70;34.40;;;;;;7610896;23;20040;-72
2022/05/24 10:13:49;;;;;;;0.95;0.43;;;24.70;34.50;;;;;;7637018;23;20437;-73
2022/05/24 10:17:21;;;;;;;0.80;0.32;;;24.80;34.50;;;;;;7522693;23;20042;-71
2022/05/24 10:20:40;;;;;;;4.35;1.10;;;24.70;34.50;;;;;;7523284;23;20023;-72
2022/05/24 10:24:02;;;;;;;0.90;0.35;;;24.60;34.60;;;;;;7518899;23;20094;-73
2022/05/24 10:27:17;;;;;;;0.30;0.30;;;24.50;34.80;;;;;;7523523;23;20038;-73
2022/05/24 10:30:20;;;;;;;4.65;0.90;;;24.50;34.90;;;;;;7500481;23;20019;-73
2022/05/24 10:41:18;;;;;;;0.95;0.40;;;24.80;34.80;;;;;;7498776;23;20375;-74
2022/05/24 10:44:40;;;;;;;5.57;0.57;;;25.10;35.00;;;;;;7428660;23;20408;-72
2022/05/24 10:47:57;;;;;;;1.55;0.70;;;25.40;33.90;;;;;;7428203;23;20424;-72
2022/05/24 10:51:23;;;;;;;0.70;0.60;;;25.60;33.80;;;;;;7405392;23;20016;-72
2022/05/24 10:54:36;;;;;;;2.67;1.00;;;25.70;33.50;;;;;;7521875;23;20038;-72
2022/05/24 10:57:58;;;;;;;3.13;1.00;;;25.80;33.40;;;;;;7524872;23;20026;-71
2022/05/24 11:01:28;;;;;;;1.77;0.65;;;25.80;33.50;;;;;;7498126;23;20019;-71
2022/05/24 11:04:53;;;;;;;1.55;0.50;;;26.10;33.20;;;;;;7525953;23;20026;-72
2022/05/24 11:08:12;;;;;;;4.20;0.55;;;26.40;32.70;;;;;;7569636;23;20013;-71
2022/05/24 11:11:25;;;;;;;7.30;1.52;;;26.80;32.20;;;;;;7559683;23;20136;-72
2022/05/24 11:14:42;;;;;;;0.65;0.57;;;27.10;31.80;;;;;;7558002;23;20042;-71
2022/05/24 11:17:44;;;;;;;0.88;0.40;;;27.50;31.40;;;;;;7570447;23;20021;-74
2022/05/24 11:20:59;;;;;;;2.67;0.32;;;27.70;31.00;;;;;;7622081;23;20028;-71
2022/05/24 11:24:14;;;;;;;1.85;0.60;;;27.70;30.80;;;;;;7636088;23;20013;-72
2022/05/24 11:27:17;;;;;;;2.25;0.50;;;28.00;30.40;;;;;;7635039;23;20013;-72
2022/05/24 11:30:39;;;;;;;0.77;0.32;;;28.30;30.10;;;;;;7635101;23;20051;-71
2022/05/24 11:33:43;;;;;;;2.90;1.00;;;28.20;30.00;;;;;;7668922;23;20021;-72
2022/05/24 11:37:20;;;;;;;6.93;1.10;;;28.00;30.10;;;;;;7671931;23;20056;-72
2022/05/24 11:40:56;;;;;;;0.60;0.50;;;27.80;30.30;;;;;;7463470;23;20109;-72
2022/05/24 11:44:03;;;;;;;1.15;0.63;;;27.70;30.30;;;;;;7383265;24;20041;-71
2022/05/24 11:47:04;;;;;;;2.65;0.60;;;27.60;30.50;;;;;;7384206;24;20040;-72
2022/05/24 11:50:10;;;;;;;0.55;0.50;;;27.70;30.60;;;;;;7384124;24;20021;-72
2022/05/24 11:53:35;;;;;;;0.60;0.60;;;27.90;30.30;;;;;;7361161;24;20024;-72
2022/05/24 11:56:38;;;;;;;4.43;0.90;;;28.10;30.20;;;;;;7382948;24;20052;-71
2022/05/24 11:59:43;;;;;;;3.17;1.20;;;28.10;30.00;;;;;;7347019;24;20032;-72
2022/05/24 12:09:55;;;;;;;1.30;0.70;;;28.40;30.00;;;;;;7370475;24;20028;-73
2022/05/24 12:13:04;;;;;;;2.67;0.60;;;28.60;30.00;;;;;;7384537;24;20039;-71
2022/05/24 12:16:26;;;;;;;7.40;1.00;;;28.50;29.80;;;;;;7409116;23;20107;-72
2022/05/24 12:19:48;;;;;;;3.42;1.48;;;28.70;29.70;;;;;;7405916;23;20015;-72
2022/05/24 12:23:04;;;;;;;0.65;0.60;;;29.20;29.50;;;;;;7558058;23;20430;-71
2022/05/24 12:26:13;;;;;;;0.98;0.43;;;29.40;29.30;;;;;;7559535;23;20029;-72
2022/05/24 12:29:17;;;;;;;3.20;0.90;;;29.90;29.00;;;;;;7560220;23;20018;-71
2022/05/24 12:32:20;;;;;;;1.23;0.57;;;30.70;28.40;;;;;;7534525;23;20437;-71
2022/05/24 12:35:24;;;;;;;3.35;0.70;;;31.20;27.80;;;;;;7560059;23;20430;-71
2022/05/24 12:38:28;;;;;;;2.13;0.47;;;31.30;27.50;;;;;;7535255;23;20033;-72
2022/05/24 12:41:36;;;;;;;2.03;0.50;;;31.30;27.50;;;;;;7558335;23;20028;-72
2022/05/24 12:44:47;;;;;;;2.28;0.70;;;31.40;27.30;;;;;;7558696;23;20041;-73
2022/05/24 12:47:53;;;;;;;1.52;0.47;;;31.40;27.00;;;;;;7535447;23;20015;-71
2022/05/24 12:51:11;;;;;;;2.50;0.60;;;31.20;27.00;;;;;;7558689;23;20077;-72
2022/05/24 12:54:15;;;;;;;1.95;0.73;;;31.00;26.90;;;;;;7558276;23;20022;-71
2022/05/24 12:57:28;;;;;;;2.22;0.60;;;30.80;27.00;;;;;;7684701;23;20012;-72
2022/05/24 13:00:29;;;;;;;2.25;0.70;;;30.70;27.30;;;;;;7671992;23;20061;-73
2022/05/24 13:03:31;;;;;;;0.82;0.60;;;30.90;27.20;;;;;;7670772;23;20013;-72
2022/05/24 13:06:48;;;;;;;1.70;0.60;;;31.20;26.70;;;;;;7648749;23;20316;-73
2022/05/24 13:09:49;;;;;;;2.30;0.65;;;31.70;26.40;;;;;;7669957;23;20036;-73
2022/05/24 13:13:00;;;;;;;1.65;0.57;;;32.10;26.10;;;;;;7669214;23;20017;-72
2022/05/24 13:16:06;;;;;;;2.03;0.60;;;32.30;25.80;;;;;;7682703;23;20037;-72
2022/05/24 13:19:07;;;;;;;0.40;0.40;;;32.60;25.50;;;;;;7681034;23;20033;-71
2022/05/24 13:22:08;;;;;;;1.42;0.70;;;32.80;25.20;;;;;;7681856;23;20083;-72
2022/05/24 13:25:16;;;;;;;3.33;1.02;;;32.90;25.20;;;;;;7706654;23;20019;-71
2022/05/24 13:28:44;;;;;;;2.27;0.70;;;32.90;25.30;;;;;;7681843;23;20017;-73
2022/05/24 13:35:05;;;;;;;2.15;0.60;;;32.20;25.40;;;;;;7709432;23;20027;-72
2022/05/24 13:38:06;;;;;;;0.60;0.50;;;31.80;25.80;;;;;;7707736;23;20100;-72
2022/05/24 13:41:09;;;;;;;1.88;0.70;;;31.10;26.20;;;;;;7708156;23;20285;-72
2022/05/24 13:44:22;;;;;;;3.58;0.50;;;30.70;26.80;;;;;;7681274;23;20092;-71
2022/05/24 13:47:27;;;;;;;1.30;0.57;;;30.30;27.10;;;;;;7671299;23;20424;-72
2022/05/24 13:50:31;;;;;;;0.93;0.43;;;30.20;27.10;;;;;;7681094;23;20027;-72
2022/05/24 13:53:39;;;;;;;2.63;0.63;;;29.90;27.40;;;;;;7683000;23;20025;-71
2022/05/24 13:56:46;;;;;;;1.27;0.50;;;29.40;27.70;;;;;;7708631;23;20031;-72
2022/05/24 14:00:09;;;;;;;3.75;0.80;;;29.10;28.10;;;;;;7658187;23;20024;-72
2022/05/24 14:03:28;;;;;;;1.17;0.47;;;28.80;28.30;;;;;;7680340;23;20025;-73
2022/05/24 14:06:30;;;;;;;2.30;0.80;;;28.60;28.60;;;;;;7707386;23;20025;-72
2022/05/24 14:09:33;;;;;;;2.10;0.70;;;28.30;28.90;;;;;;7679317;23;20039;-73
2022/05/24 14:12:34;;;;;;;1.77;0.70;;;28.00;29.20;;;;;;7708076;23;20036;-73
2022/05/24 14:15:37;;;;;;;1.33;0.80;;;27.80;29.40;;;;;;7707653;23;20043;-71
2022/05/24 14:18:38;;;;;;;1.45;0.63;;;27.70;29.50;;;;;;7705998;23;20123;-72
2022/05/24 14:21:40;;;;;;;4.03;0.70;;;27.60;29.70;;;;;;7708087;23;20016;-72
2022/05/24 14:24:41;;;;;;;1.27;0.50;;;27.40;29.90;;;;;;7708834;23;20418;-72
2022/05/24 14:27:42;;;;;;;0.70;0.60;;;27.50;30.10;;;;;;7658178;23;20017;-72
2022/05/24 14:30:44;;;;;;;1.08;0.75;;;27.50;30.30;;;;;;7658145;23;20017;-72
2022/05/24 14:33:45;;;;;;;2.17;0.70;;;27.40;30.60;;;;;;7683791;23;20012;-73
2022/05/24 14:36:47;;;;;;;1.67;1.25;;;27.20;31.00;;;;;;7658947;23;20016;-73
2022/05/24 14:39:59;;;;;;;2.00;1.30;;;27.00;31.50;;;;;;7709231;23;20040;-72
2022/05/24 14:43:00;;;;;;;1.13;0.60;;;26.80;31.80;;;;;;7670853;23;20017;-73
2022/05/24 14:46:02;;;;;;;1.58;0.55;;;26.60;32.10;;;;;;7646457;23;20023;-73
2022/05/24 14:49:05;;;;;;;2.50;0.60;;;26.60;32.30;;;;;;7670614;23;20017;-72
2022/05/24 14:52:09;;;;;;;3.95;0.60;;;26.50;32.40;;;;;;7673034;23;20708;-72
2022/05/24 14:55:18;;;;;;;2.97;1.40;;;26.60;32.30;;;;;;7675392;23;20013;-73
2022/05/24 14:58:19;;;;;;;2.90;1.13;;;26.60;32.20;;;;;;7658771;23;20298;-72
2022/05/24 15:01:21;;;;;;;0.63;0.60;;;26.70;32.30;;;;;;7683709;23;20072;-72
2022/05/24 15:04:22;;;;;;;1.58;0.70;;;26.80;32.50;;;;;;7682686;23;20052;-73
2022/05/24 15:17:34;;;;;;;2.97;0.70;;;26.50;32.60;;;;;;7708273;23;20456;-71
2022/05/24 15:20:36;;;;;;;3.65;0.77;;;26.50;32.70;;;;;;7676697;23;20083;-73
2022/05/24 15:23:40;;;;;;;5.07;0.47;;;26.40;32.60;;;;;;7671599;23;20017;-72
2022/05/24 15:26:47;;;;;;;0.60;0.40;;;26.30;32.50;;;;;;7671485;23;20079;-72
2022/05/24 15:29:48;;;;;;;4.40;0.80;;;26.20;32.40;;;;;;7683248;23;20028;-72
2022/05/24 15:32:50;;;;;;;1.73;0.90;;;26.10;32.90;;;;;;7707821;23;20095;-71
2022/05/24 15:35:52;;;;;;;1.20;0.80;;;26.00;33.30;;;;;;7683469;23;20344;-71
2022/05/24 15:38:53;;;;;;;2.53;1.42;;;26.10;33.60;;;;;;7683828;23;20079;-73
2022/05/24 15:41:54;;;;;;;1.80;0.52;;;26.00;33.90;;;;;;7656374;23;20396;-71
2022/05/24 15:44:55;;;;;;;1.30;0.68;;;26.00;34.40;;;;;;7708050;23;20069;-71
2022/05/24 15:47:55;;;;;;;1.45;0.90;;;25.90;34.80;;;;;;7682430;23;20024;-71
2022/05/24 15:50:56;;;;;;;8.52;0.80;;;25.80;35.20;;;;;;7708717;23;20324;-71
2022/05/24 15:53:57;;;;;;;3.40;0.88;;;25.80;35.70;;;;;;7680744;23;20316;-72
2022/05/24 15:56:58;;;;;;;2.17;0.60;;;25.70;35.80;;;;;;7682113;23;20019;-71
2022/05/24 15:59:59;;;;;;;4.45;1.08;;;25.60;35.80;;;;;;7705520;23;20020;-72
2022/05/24 16:03:00;;;;;;;12.70;4.57;;;25.50;36.00;;;;;;7683647;23;20059;-73
2022/05/24 16:12:47;;;;;;;13.55;7.97;;;25.20;37.10;;;;;;7708673;23;20062;-71
2022/05/24 16:15:50;;;;;;;5.25;2.20;;;25.10;37.60;;;;;;7675712;23;20021;-72
2022/05/24 16:18:52;;;;;;;11.43;1.45;;;25.00;37.90;;;;;;7682390;23;20051;-72
2022/05/24 16:21:54;;;;;;;2.08;1.10;;;24.90;38.30;;;;;;7709539;23;20016;-71
2022/05/24 16:24:56;;;;;;;5.18;1.95;;;24.80;38.50;;;;;;7658322;23;20159;-71
2022/05/24 16:27:57;;;;;;;8.20;2.63;;;24.70;38.60;;;;;;7682286;23;20091;-71
2022/05/24 16:30:58;;;;;;;13.85;6.57;;;24.70;38.60;;;;;;7709387;23;20036;-73
2022/05/24 16:33:59;;;;;;;8.63;3.80;;;24.70;38.40;;;;;;7683521;23;20009;-72
2022/05/24 16:37:00;;;;;;;7.45;3.75;;;24.60;38.60;;;;;;7683610;23;20407;-72
2022/05/24 16:40:05;;;;;;;32.50;13.48;;;24.60;38.80;;;;;;7709472;23;20012;-71
2022/05/24 16:43:06;;;;;;;36.40;14.50;;;24.60;39.20;;;;;;7681267;23;20005;-72
2022/05/24 16:46:07;;;;;;;17.00;8.50;;;24.50;39.40;;;;;;7676914;23;20451;-72
2022/05/24 16:49:08;;;;;;;33.17;13.90;;;24.50;39.50;;;;;;7653987;23;20016;-71
2022/05/24 16:52:11;;;;;;;11.27;4.15;;;24.50;39.70;;;;;;7681957;23;20293;-71
2022/05/24 16:58:44;;;;;;;9.27;5.00;;;24.40;40.70;;;;;;7707077;23;20023;-72
2022/05/24 17:01:45;;;;;;;19.65;8.60;;;24.30;41.40;;;;;;7709540;23;20021;-72
2022/05/24 17:04:47;;;;;;;13.27;5.15;;;24.20;41.70;;;;;;7681970;23;20289;-72
2022/05/24 17:07:48;;;;;;;12.18;5.55;;;24.10;42.00;;;;;;7660063;23;20020;-71
2022/05/24 17:10:49;;;;;;;13.32;6.25;;;24.10;42.20;;;;;;7709667;23;20439;-72
2022/05/24 17:13:53;;;;;;;8.32;4.32;;;24.00;42.50;;;;;;7684340;23;20312;-72
2022/05/24 17:16:54;;;;;;;30.13;12.77;;;24.00;42.90;;;;;;7710768;23;20031;-72
2022/05/24 17:19:55;;;;;;;13.13;6.03;;;23.90;43.50;;;;;;7710158;23;20020;-73